»·PEaware :: N4KK 6S0-KPRC

N4KK :: 6S0-KPRC

FLIGHT INFORMATION

Flight Status: Arrived
Operator: Privately registered:
United States
More flights under this callsign
Pilot: Richard A. (43314)
Aircraft: BEECH AIRCRAFT SUPER KING AIR 350
(B350)
More flights by this aircraft type
Origin: 6S0 Big Timber
United States
Destination: KPRC Love
United States
More flights between these airports :: More routes between these airports
Route: LVM DBS J9 FFU J11 BCE J11 DRK
File this flight plan on PilotEdge
Remarks: ODP
Altitude:
(Current/Filed)
27,000ft
Speed:
(Current/Filed)
310kts
Departed: 09-Apr-23 10:52 AM
Arrived: 09-Apr-23 01:29 PM
Distance/Time
Traveled:
679nm/2:37
Distance/Time
To Go:
Arrived

Flight Plot

Page will automatically refresh every two minutes.

Flight plan parsing failed; only flown route is shown


Map Options




Map Legend


Flown Route
Filed Route
Departure Airport
Arrival Airport
Navaid (VOR, NDB)
Fix

Horizontal Profiles

Position Reports

Time Latitude Longitude Heading Altitude Ground
Speed
09-Apr-23 10:16 45.808531 -109.974025 256 4497ft 0kts
09-Apr-23 10:17 45.808531 -109.974025 256 4497ft 0kts
09-Apr-23 10:18 45.808531 -109.974025 256 4497ft 0kts
09-Apr-23 10:19 45.808531 -109.974025 256 4497ft 0kts
09-Apr-23 10:20 45.808531 -109.974025 256 4497ft 0kts
09-Apr-23 10:21 45.808531 -109.974025 256 4497ft 0kts
09-Apr-23 10:22 45.808531 -109.974025 256 4497ft 0kts
09-Apr-23 10:23 45.808531 -109.974025 256 4497ft 0kts
09-Apr-23 10:24 45.808531 -109.974025 256 4497ft 0kts
09-Apr-23 10:25 45.808531 -109.974025 256 4497ft 0kts
09-Apr-23 10:26 45.808531 -109.974025 256 4497ft 0kts
09-Apr-23 10:27 45.808531 -109.974025 256 4497ft 0kts
09-Apr-23 10:28 45.808531 -109.974025 256 4497ft 0kts
09-Apr-23 10:29 45.808531 -109.974025 256 4497ft 0kts
09-Apr-23 10:30 45.808531 -109.974025 256 4497ft 0kts
09-Apr-23 10:31 45.808531 -109.974025 256 4497ft 0kts
09-Apr-23 10:32 45.808531 -109.974025 256 4497ft 0kts
09-Apr-23 10:33 45.808531 -109.974025 256 4497ft 0kts
09-Apr-23 10:34 45.808754 -109.972321 74 4497ft 12kts
09-Apr-23 10:35 45.809596 -109.968093 74 4497ft 0kts
09-Apr-23 10:36 45.809596 -109.968093 74 4497ft 0kts
09-Apr-23 10:37 45.809596 -109.968093 74 4497ft 0kts
09-Apr-23 10:38 45.809596 -109.968093 74 4497ft 0kts
09-Apr-23 10:39 45.809596 -109.968093 74 4497ft 0kts
09-Apr-23 10:40 45.809596 -109.968093 74 4497ft 0kts
09-Apr-23 10:41 45.809596 -109.968093 74 4497ft 0kts
09-Apr-23 10:42 45.809596 -109.968093 74 4497ft 0kts
09-Apr-23 10:43 45.809596 -109.968093 74 4497ft 0kts
09-Apr-23 10:44 45.809596 -109.968093 74 4497ft 0kts
09-Apr-23 10:45 45.809596 -109.968093 74 4497ft 0kts
09-Apr-23 10:46 45.809596 -109.968093 74 4497ft 0kts
09-Apr-23 10:47 45.809596 -109.968093 74 4497ft 0kts
09-Apr-23 10:48 45.809596 -109.968093 74 4497ft 0kts
09-Apr-23 10:49 45.809602 -109.968046 83 4497ft 3kts
09-Apr-23 10:50 45.808990 -109.967729 247 4497ft 0kts
09-Apr-23 10:51 45.803694 -109.994855 248 5059ft 117kts
09-Apr-23 10:52 45.791641 -110.045335 252 6678ft 139kts
09-Apr-23 10:53 45.779590 -110.099145 255 8456ft 149kts
09-Apr-23 10:54 45.766672 -110.157076 255 10214ft 155kts
09-Apr-23 10:55 45.753371 -110.216511 255 11909ft 159kts
09-Apr-23 10:56 45.739744 -110.277227 256 13481ft 166kts
09-Apr-23 10:57 45.725171 -110.341955 257 14960ft 173kts
09-Apr-23 10:58 45.710321 -110.407744 258 16344ft 176kts
09-Apr-23 10:59 45.682104 -110.465425 226 17673ft 192kts
09-Apr-23 11:00 45.639955 -110.513357 226 18842ft 197kts
09-Apr-23 11:01 45.596586 -110.562429 227 19948ft 201kts
09-Apr-23 11:02 45.552297 -110.612428 227 20999ft 205kts
09-Apr-23 11:03 45.507175 -110.663262 227 22025ft 207kts
09-Apr-23 11:04 45.464110 -110.711669 228 23274ft 196kts
09-Apr-23 11:05 45.420800 -110.760296 229 24236ft 201kts
09-Apr-23 11:06 45.376585 -110.809819 229 25214ft 204kts
09-Apr-23 11:07 45.331463 -110.860258 229 26150ft 209kts
09-Apr-23 11:08 45.285691 -110.911308 230 27046ft 211kts
09-Apr-23 11:09 45.237340 -110.965213 228 27325ft 237kts
09-Apr-23 11:10 45.184115 -111.024274 227 27322ft 248kts
09-Apr-23 11:11 45.128984 -111.085326 226 27341ft 255kts
09-Apr-23 11:12 45.072478 -111.147750 225 27351ft 261kts
09-Apr-23 11:13 45.014719 -111.211388 225 27350ft 266kts
09-Apr-23 11:14 44.955880 -111.276050 224 27350ft 271kts
09-Apr-23 11:15 44.895966 -111.341695 224 27350ft 274kts
09-Apr-23 11:16 44.835518 -111.407769 224 27348ft 280kts
09-Apr-23 11:17 44.773287 -111.475594 224 27346ft 286kts
09-Apr-23 11:18 44.710088 -111.544289 224 27345ft 291kts
09-Apr-23 11:19 44.645828 -111.613939 223 27345ft 294kts
09-Apr-23 11:20 44.580681 -111.684337 223 27362ft 297kts
09-Apr-23 11:21 44.515110 -111.754998 223 27381ft 299kts
09-Apr-23 11:22 44.449067 -111.825953 223 27394ft 301kts
09-Apr-23 11:23 44.382534 -111.897224 223 27394ft 302kts
09-Apr-23 11:24 44.315558 -111.968761 223 27394ft 303kts
09-Apr-23 11:25 44.248544 -112.040128 223 27394ft 304kts
09-Apr-23 11:26 44.181377 -112.111449 222 27394ft 304kts
09-Apr-23 11:27 44.114025 -112.182755 222 27395ft 305kts
09-Apr-23 11:28 44.031083 -112.204819 180 27394ft 321kts
09-Apr-23 11:29 43.942226 -112.198521 180 27397ft 322kts
09-Apr-23 11:30 43.852777 -112.191948 180 27392ft 322kts
09-Apr-23 11:31 43.763903 -112.185428 180 27397ft 321kts
09-Apr-23 11:32 43.674747 -112.178913 180 27400ft 321kts
09-Apr-23 11:33 43.585692 -112.172426 180 27400ft 321kts
09-Apr-23 11:34 43.496761 -112.165965 180 27402ft 321kts
09-Apr-23 11:35 43.407627 -112.159509 180 27402ft 322kts
09-Apr-23 11:36 43.318352 -112.153061 180 27402ft 322kts
09-Apr-23 11:37 43.228690 -112.146603 180 27401ft 323kts
09-Apr-23 11:38 43.139365 -112.140188 180 27402ft 323kts
09-Apr-23 11:39 43.049622 -112.133767 180 27403ft 323kts
09-Apr-23 11:40 42.959938 -112.127366 179 27400ft 324kts
09-Apr-23 11:41 42.870378 -112.120990 179 27389ft 323kts
09-Apr-23 11:42 42.781198 -112.114656 179 27390ft 321kts
09-Apr-23 11:43 42.692154 -112.108355 179 27391ft 320kts
09-Apr-23 11:44 42.603546 -112.102103 179 27391ft 319kts
09-Apr-23 11:45 42.514771 -112.095856 179 27394ft 319kts
09-Apr-23 11:46 42.426103 -112.089637 179 27399ft 319kts
09-Apr-23 11:47 42.337573 -112.083442 179 27402ft 320kts
09-Apr-23 11:48 42.248870 -112.077253 179 27403ft 320kts
09-Apr-23 11:49 42.160178 -112.071084 179 27403ft 320kts
09-Apr-23 11:50 42.071259 -112.064914 179 27404ft 321kts
09-Apr-23 11:51 41.982203 -112.058753 179 27404ft 321kts
09-Apr-23 11:52 41.892871 -112.052590 179 27402ft 322kts
09-Apr-23 11:53 41.803714 -112.046456 179 27389ft 321kts
09-Apr-23 11:54 41.714921 -112.040363 179 27385ft 321kts
09-Apr-23 11:55 41.625768 -112.034266 179 27386ft 320kts
09-Apr-23 11:56 41.536952 -112.028207 179 27386ft 320kts
09-Apr-23 11:57 41.448247 -112.022169 179 27384ft 321kts
09-Apr-23 11:58 41.359409 -112.016144 179 27380ft 321kts
09-Apr-23 11:59 41.270247 -112.010110 179 27375ft 321kts
09-Apr-23 12:00 41.181387 -112.004114 179 27371ft 321kts
09-Apr-23 12:01 41.092180 -111.998142 179 27368ft 322kts
09-Apr-23 12:02 41.002986 -111.992161 177 27369ft 321kts
09-Apr-23 12:03 40.914569 -111.986210 176 27368ft 318kts
09-Apr-23 12:04 40.826979 -111.980218 176 27369ft 315kts
09-Apr-23 12:05 40.739865 -111.973916 176 27373ft 313kts
09-Apr-23 12:06 40.653075 -111.967650 176 27373ft 313kts
09-Apr-23 12:07 40.566570 -111.961421 176 27377ft 312kts
09-Apr-23 12:08 40.479957 -111.955200 176 27383ft 312kts
09-Apr-23 12:09 40.393457 -111.949003 176 27384ft 312kts
09-Apr-23 12:10 40.306965 -111.942822 176 27384ft 312kts
09-Apr-23 12:11 40.220540 -111.948487 186 27384ft 312kts
09-Apr-23 12:12 40.134337 -111.960993 186 27385ft 313kts
09-Apr-23 12:13 40.048130 -111.973496 186 27385ft 313kts
09-Apr-23 12:14 39.961477 -111.986035 186 27385ft 313kts
09-Apr-23 12:15 39.874939 -111.998523 186 27382ft 314kts
09-Apr-23 12:16 39.788194 -112.011009 186 27379ft 315kts
09-Apr-23 12:17 39.701016 -112.023524 186 27373ft 317kts
09-Apr-23 12:19 39.612626 -112.036183 186 27368ft 321kts
09-Apr-23 12:20 39.523784 -112.048873 186 27365ft 323kts
09-Apr-23 12:21 39.434401 -112.061607 186 27365ft 324kts
09-Apr-23 12:22 39.344781 -112.074342 186 27366ft 325kts
09-Apr-23 12:23 39.255154 -112.087045 186 27366ft 325kts
09-Apr-23 12:24 39.165614 -112.099704 186 27366ft 325kts
09-Apr-23 12:25 39.075805 -112.112369 186 27367ft 326kts
09-Apr-23 12:26 38.985808 -112.125011 186 27368ft 325kts
09-Apr-23 12:27 38.896337 -112.137582 187 27366ft 322kts
09-Apr-23 12:28 38.808042 -112.149936 186 27364ft 319kts
09-Apr-23 12:29 38.720177 -112.162203 186 27364ft 317kts
09-Apr-23 12:30 38.633088 -112.174329 186 27384ft 315kts
09-Apr-23 12:31 38.546156 -112.186406 186 27402ft 315kts
09-Apr-23 12:32 38.459349 -112.198436 186 27398ft 315kts
09-Apr-23 12:33 38.372324 -112.210467 186 27398ft 315kts
09-Apr-23 12:34 38.285422 -112.222450 186 27421ft 314kts
09-Apr-23 12:35 38.198771 -112.234374 186 27438ft 314kts
09-Apr-23 12:36 38.112004 -112.246283 186 27438ft 315kts
09-Apr-23 12:37 38.025247 -112.258160 186 27438ft 315kts
09-Apr-23 12:38 37.938166 -112.270056 186 27438ft 315kts
09-Apr-23 12:39 37.850961 -112.281937 186 27438ft 315kts
09-Apr-23 12:40 37.764116 -112.293743 186 27438ft 315kts
09-Apr-23 12:41 37.676719 -112.304640 183 27436ft 316kts
09-Apr-23 12:42 37.589376 -112.310020 183 27438ft 316kts
09-Apr-23 12:42 37.516293 -112.314485 183 27438ft 316kts
09-Apr-23 12:44 37.414233 -112.320707 183 27431ft 316kts
09-Apr-23 12:45 37.326249 -112.326056 183 27379ft 318kts
09-Apr-23 12:46 37.237942 -112.331414 183 27346ft 318kts
09-Apr-23 12:46 37.164544 -112.335857 183 27346ft 317kts
09-Apr-23 12:47 37.076731 -112.341112 185 27347ft 317kts
09-Apr-23 12:48 36.989319 -112.346413 186 27349ft 311kts
09-Apr-23 12:50 36.890872 -112.352347 185 27342ft 296kts
09-Apr-23 12:50 36.823129 -112.356415 185 27346ft 292kts
09-Apr-23 12:51 36.742684 -112.361239 186 27346ft 289kts
09-Apr-23 12:52 36.662668 -112.366027 186 27346ft 287kts
09-Apr-23 12:53 36.583118 -112.370774 186 27350ft 286kts
09-Apr-23 12:54 36.503922 -112.375499 186 27364ft 285kts
09-Apr-23 12:55 36.424857 -112.380201 186 27373ft 285kts
09-Apr-23 12:56 36.345723 -112.384898 186 27378ft 285kts
09-Apr-23 12:57 36.266901 -112.389565 186 27380ft 285kts
09-Apr-23 12:58 36.187905 -112.394235 186 27379ft 285kts
09-Apr-23 12:59 36.108855 -112.398900 186 27379ft 285kts
09-Apr-23 13:00 36.029870 -112.403547 186 27378ft 285kts
09-Apr-23 13:01 35.950938 -112.408183 186 27378ft 284kts
09-Apr-23 13:02 35.872099 -112.412800 186 27385ft 285kts
09-Apr-23 13:03 35.792838 -112.417435 186 27384ft 285kts
09-Apr-23 13:04 35.713633 -112.422060 186 27383ft 286kts
09-Apr-23 13:05 35.634424 -112.426674 186 27375ft 286kts
09-Apr-23 13:06 35.554830 -112.431301 186 27356ft 287kts
09-Apr-23 13:07 35.475235 -112.435920 186 27345ft 287kts
09-Apr-23 13:08 35.395782 -112.440523 186 27344ft 286kts
09-Apr-23 13:09 35.316396 -112.445123 186 27344ft 286kts
09-Apr-23 13:10 35.237259 -112.449700 186 27343ft 286kts
09-Apr-23 13:11 35.157964 -112.454280 186 27278ft 288kts
09-Apr-23 13:12 35.076962 -112.458944 185 26748ft 288kts
09-Apr-23 13:13 35.000165 -112.463354 185 26083ft 271kts
09-Apr-23 13:14 34.925648 -112.467635 185 24877ft 268kts
09-Apr-23 13:15 34.851784 -112.471855 185 23469ft 262kts
09-Apr-23 13:16 34.780722 -112.475907 184 22061ft 250kts
09-Apr-23 13:17 34.712321 -112.479181 174 20351ft 245kts
09-Apr-23 13:18 34.662606 -112.423104 134 18686ft 250kts
09-Apr-23 13:19 34.617385 -112.360109 134 16994ft 246kts
09-Apr-23 13:20 34.623884 -112.287736 31 15299ft 265kts
09-Apr-23 13:21 34.687626 -112.244972 30 13640ft 260kts
09-Apr-23 13:22 34.751280 -112.210946 352 11921ft 251kts
09-Apr-23 13:23 34.787473 -112.272797 258 10234ft 239kts
09-Apr-23 13:24 34.748256 -112.331528 246 8581ft 228kts
09-Apr-23 13:25 34.705759 -112.364350 224 6654ft 151kts
09-Apr-23 13:26 34.678410 -112.393960 221 5464ft 121kts
09-Apr-23 13:27 34.655748 -112.418141 221 4984ft 56kts
09-Apr-23 13:28 34.650819 -112.422120 130 5010ft 2kts
09-Apr-23 13:29 34.650198 -112.422283 217 5013ft 7kts
09-Apr-23 13:30 34.648215 -112.424388 221 5019ft 8kts
09-Apr-23 13:31 34.646812 -112.424553 109 5024ft 0kts
09-Apr-23 13:32 34.646812 -112.424553 109 5024ft 0kts

Navigation Log

Ident Type
Flight plan parsing failed, navigation log unavailable